Time;durP1;ratioP1;P1;durP2;ratioP2;P2;SDS_P1;SDS_P2;PMS_P1;PMS_P2;Temp;Humidity;BMP_temperature;BMP_pressure;BME280_temperature;BME280_humidity;BME280_pressure;Samples;Min_cycle;Max_cycle;Signal;HPM_P1;HPM_P2
2024/02/22 00:02:21;;;;;;;3.22;1.50;;;;;;;;;;5078240;28;20036;-63
2024/02/22 00:04:47;;;;;;;5.05;1.65;;;;;;;;;;5079558;28;20047;-64
2024/02/22 00:07:16;;;;;;;2.75;1.67;;;;;;;;;;5082472;28;20396;-63
2024/02/22 00:09:42;;;;;;;2.60;1.80;;;;;;;;;;5084069;28;20048;-63
2024/02/22 00:12:09;;;;;;;2.35;1.40;;;;;;;;;;5079589;28;20052;-63
2024/02/22 00:14:36;;;;;;;2.70;1.60;;;;;;;;;;5075668;28;20044;-64
2024/02/22 00:17:02;;;;;;;2.85;1.45;;;;;;;;;;5054673;28;20047;-64
2024/02/22 00:19:28;;;;;;;4.22;1.60;;;;;;;;;;5074776;28;20075;-64
2024/02/22 00:21:55;;;;;;;3.47;1.60;;;;;;;;;;5079995;28;20044;-63
2024/02/22 00:24:21;;;;;;;3.15;1.63;;;;;;;;;;5079720;28;20035;-64
2024/02/22 00:26:47;;;;;;;3.42;1.58;;;;;;;;;;5078088;28;20052;-63
2024/02/22 00:29:14;;;;;;;3.55;1.75;;;;;;;;;;5082176;28;20044;-63
2024/02/22 00:31:40;;;;;;;3.03;1.90;;;;;;;;;;5080447;28;20522;-64
2024/02/22 00:34:06;;;;;;;3.10;1.70;;;;;;;;;;5071054;28;20479;-63
2024/02/22 00:36:44;;;;;;;3.28;1.77;;;;;;;;;;5078966;28;20048;-63
2024/02/22 00:39:12;;;;;;;2.78;1.73;;;;;;;;;;5078465;28;20040;-63
2024/02/22 00:41:40;;;;;;;2.65;1.75;;;;;;;;;;5085437;28;20043;-63
2024/02/22 00:44:07;;;;;;;2.33;1.90;;;;;;;;;;5082425;28;20036;-63
2024/02/22 00:46:34;;;;;;;2.75;1.75;;;;;;;;;;5082474;28;20032;-64
2024/02/22 00:49:00;;;;;;;5.35;1.77;;;;;;;;;;5080676;28;20624;-63
2024/02/22 00:51:26;;;;;;;2.90;1.90;;;;;;;;;;5085629;28;20032;-64
2024/02/22 00:53:52;;;;;;;3.13;1.67;;;;;;;;;;5083662;28;20032;-63
2024/02/22 00:56:18;;;;;;;3.75;1.73;;;;;;;;;;5080660;28;20043;-64
2024/02/22 00:58:44;;;;;;;4.15;1.65;;;;;;;;;;5083666;28;20066;-63
2024/02/22 01:01:10;;;;;;;2.83;1.67;;;;;;;;;;5083190;28;20039;-64
2024/02/22 01:03:37;;;;;;;3.47;1.95;;;;;;;;;;5081137;28;20051;-64
2024/02/22 01:06:03;;;;;;;3.17;2.00;;;;;;;;;;5088829;28;20027;-64
2024/02/22 01:08:30;;;;;;;2.88;1.75;;;;;;;;;;5080048;28;20051;-64
2024/02/22 01:10:56;;;;;;;3.03;1.70;;;;;;;;;;5082594;28;20414;-64
2024/02/22 01:13:22;;;;;;;3.13;1.85;;;;;;;;;;5080693;28;20048;-64
2024/02/22 01:15:48;;;;;;;4.47;1.80;;;;;;;;;;5080699;28;20411;-64
2024/02/22 01:18:14;;;;;;;3.40;1.80;;;;;;;;;;5083355;28;20035;-64
2024/02/22 01:20:41;;;;;;;4.75;1.52;;;;;;;;;;5093198;28;20052;-64
2024/02/22 01:23:07;;;;;;;2.30;1.60;;;;;;;;;;5077494;28;20036;-64
2024/02/22 01:25:33;;;;;;;4.97;1.75;;;;;;;;;;5079056;28;20043;-64
2024/02/22 01:27:59;;;;;;;2.95;2.00;;;;;;;;;;5077564;28;20028;-64
2024/02/22 01:30:25;;;;;;;2.70;1.80;;;;;;;;;;5083508;28;20048;-63
2024/02/22 01:32:51;;;;;;;4.22;1.70;;;;;;;;;;5078883;28;20051;-64
2024/02/22 01:35:17;;;;;;;3.10;2.00;;;;;;;;;;5076718;28;20040;-64
2024/02/22 01:37:43;;;;;;;4.15;1.88;;;;;;;;;;5083434;28;20056;-66
2024/02/22 01:40:12;;;;;;;3.33;2.05;;;;;;;;;;5081754;28;20403;-66
2024/02/22 01:42:41;;;;;;;2.85;2.00;;;;;;;;;;5083732;28;20040;-66
2024/02/22 01:45:07;;;;;;;3.22;2.25;;;;;;;;;;5081555;28;20035;-66
2024/02/22 01:47:35;;;;;;;3.63;1.98;;;;;;;;;;5080671;28;20044;-66
2024/02/22 01:50:03;;;;;;;2.65;1.83;;;;;;;;;;5079343;28;20427;-66
2024/02/22 01:52:30;;;;;;;4.35;1.90;;;;;;;;;;5081435;28;20389;-66
2024/02/22 01:54:56;;;;;;;3.40;2.00;;;;;;;;;;5082905;28;20039;-66
2024/02/22 01:57:22;;;;;;;2.97;1.95;;;;;;;;;;5083793;28;20047;-66
2024/02/22 01:59:49;;;;;;;3.40;1.70;;;;;;;;;;5082364;28;20040;-66
2024/02/22 02:02:15;;;;;;;2.88;1.73;;;;;;;;;;5079773;28;20040;-65
2024/02/22 02:04:42;;;;;;;3.08;1.70;;;;;;;;;;5085254;28;20404;-67
2024/02/22 02:07:08;;;;;;;2.40;1.95;;;;;;;;;;5085294;28;20408;-66
2024/02/22 02:09:34;;;;;;;4.03;1.80;;;;;;;;;;5079298;28;20052;-66
2024/02/22 02:12:00;;;;;;;3.88;1.70;;;;;;;;;;5082164;28;20474;-67
2024/02/22 02:14:26;;;;;;;2.70;1.70;;;;;;;;;;5075038;28;20051;-67
2024/02/22 02:16:52;;;;;;;3.28;1.63;;;;;;;;;;5081839;28;20047;-66
2024/02/22 02:19:20;;;;;;;2.55;1.30;;;;;;;;;;5080493;28;20035;-65
2024/02/22 02:21:48;;;;;;;1.65;1.38;;;;;;;;;;5081935;28;20039;-66
2024/02/22 02:24:34;;;;;;;5.05;2.47;;;;;;;;;;5074433;28;20033;-65
2024/02/22 02:27:00;;;;;;;2.38;1.48;;;;;;;;;;5074849;28;20051;-65
2024/02/22 02:29:26;;;;;;;2.22;1.40;;;;;;;;;;5074928;28;20037;-66
2024/02/22 02:31:52;;;;;;;2.33;1.60;;;;;;;;;;5075428;28;20049;-67
2024/02/22 02:34:18;;;;;;;2.38;1.60;;;;;;;;;;5083641;28;20043;-65
2024/02/22 02:36:44;;;;;;;2.15;1.40;;;;;;;;;;5081275;28;20043;-66
2024/02/22 02:39:10;;;;;;;1.80;1.35;;;;;;;;;;5077274;28;20039;-66
2024/02/22 02:41:37;;;;;;;2.22;1.75;;;;;;;;;;5076258;28;20036;-66
2024/02/22 02:44:03;;;;;;;2.90;2.00;;;;;;;;;;5084266;28;20028;-67
2024/02/22 02:46:30;;;;;;;2.95;1.85;;;;;;;;;;5082084;28;20052;-66
2024/02/22 02:48:56;;;;;;;2.40;1.27;;;;;;;;;;5085927;28;20039;-66
2024/02/22 02:51:22;;;;;;;2.92;1.65;;;;;;;;;;5082526;28;20510;-65
2024/02/22 02:53:49;;;;;;;2.10;1.30;;;;;;;;;;5079207;28;20052;-65
2024/02/22 02:56:15;;;;;;;3.03;1.30;;;;;;;;;;5082565;28;20055;-64
2024/02/22 02:58:41;;;;;;;2.30;1.58;;;;;;;;;;5082702;28;20052;-65
2024/02/22 03:01:07;;;;;;;2.63;1.30;;;;;;;;;;5083420;28;20028;-65
2024/02/22 03:03:33;;;;;;;1.35;1.10;;;;;;;;;;5080192;28;20037;-65
2024/02/22 03:06:00;;;;;;;2.15;1.30;;;;;;;;;;5079430;28;20028;-67
2024/02/22 03:08:26;;;;;;;1.65;1.10;;;;;;;;;;5080022;28;20040;-66
2024/02/22 03:10:52;;;;;;;3.72;1.25;;;;;;;;;;5081724;28;20041;-66
2024/02/22 03:13:18;;;;;;;1.95;1.13;;;;;;;;;;5075750;28;20053;-66
2024/02/22 03:15:48;;;;;;;3.22;1.20;;;;;;;;;;5076559;28;20052;-65
2024/02/22 03:18:14;;;;;;;1.33;0.95;;;;;;;;;;5080147;28;20044;-66
2024/02/22 03:20:41;;;;;;;1.30;1.00;;;;;;;;;;5074619;28;20412;-66
2024/02/22 03:23:07;;;;;;;1.25;1.00;;;;;;;;;;5074829;28;20036;-65
2024/02/22 03:25:33;;;;;;;2.47;1.30;;;;;;;;;;5083511;28;20486;-66
2024/02/22 03:27:59;;;;;;;2.88;1.20;;;;;;;;;;5078241;28;20422;-66
2024/02/22 03:30:27;;;;;;;1.40;1.17;;;;;;;;;;5081314;28;20047;-67
2024/02/22 03:32:54;;;;;;;1.92;1.30;;;;;;;;;;5086255;28;20028;-66
2024/02/22 03:35:20;;;;;;;1.48;1.13;;;;;;;;;;5078075;28;20040;-67
2024/02/22 03:37:46;;;;;;;1.48;0.90;;;;;;;;;;5077464;28;20045;-68
2024/02/22 03:40:12;;;;;;;1.20;1.10;;;;;;;;;;5080019;28;20051;-66
2024/02/22 03:42:39;;;;;;;1.02;0.93;;;;;;;;;;5079445;28;20384;-66
2024/02/22 03:45:05;;;;;;;1.27;1.02;;;;;;;;;;5085207;28;20055;-66
2024/02/22 03:47:32;;;;;;;1.83;1.25;;;;;;;;;;5080087;28;20036;-67
2024/02/22 03:49:59;;;;;;;1.45;1.00;;;;;;;;;;5081167;28;20048;-65
2024/02/22 03:52:25;;;;;;;1.38;1.08;;;;;;;;;;5079729;28;20043;-67
2024/02/22 03:54:51;;;;;;;1.27;1.00;;;;;;;;;;5079522;28;20044;-67
2024/02/22 03:57:17;;;;;;;1.13;0.80;;;;;;;;;;5082428;28;20483;-67
2024/02/22 03:59:43;;;;;;;1.40;0.90;;;;;;;;;;5081230;28;20044;-67
2024/02/22 04:02:09;;;;;;;1.67;0.98;;;;;;;;;;5080692;28;20044;-65
2024/02/22 04:04:36;;;;;;;1.92;0.60;;;;;;;;;;5081600;28;20045;-67
2024/02/22 04:07:03;;;;;;;0.75;0.75;;;;;;;;;;5081145;28;20069;-66
2024/02/22 04:09:29;;;;;;;1.13;0.70;;;;;;;;;;5076764;28;20503;-66
2024/02/22 04:11:55;;;;;;;1.60;0.88;;;;;;;;;;5082804;28;20033;-66
2024/02/22 04:14:21;;;;;;;1.42;0.90;;;;;;;;;;5078728;28;20028;-67
2024/02/22 04:16:47;;;;;;;0.75;0.68;;;;;;;;;;5080756;28;20430;-66
2024/02/22 04:19:13;;;;;;;1.23;0.70;;;;;;;;;;5081196;28;20040;-66
2024/02/22 04:21:43;;;;;;;1.42;1.20;;;;;;;;;;5081174;28;20043;-65
2024/02/22 04:24:09;;;;;;;1.75;0.80;;;;;;;;;;5076276;28;20028;-65
2024/02/22 04:26:46;;;;;;;1.30;0.90;;;;;;;;;;5078136;28;20032;-68
2024/02/22 04:29:12;;;;;;;0.95;0.80;;;;;;;;;;5076215;28;20502;-68
2024/02/22 04:31:38;;;;;;;1.58;0.80;;;;;;;;;;5076817;28;20048;-68
2024/02/22 04:34:04;;;;;;;2.13;1.48;;;;;;;;;;5080110;28;20384;-66
2024/02/22 04:36:31;;;;;;;0.93;0.80;;;;;;;;;;5075317;28;20387;-67
2024/02/22 04:38:57;;;;;;;1.60;1.00;;;;;;;;;;5078332;28;20043;-68
2024/02/22 04:41:23;;;;;;;1.20;0.90;;;;;;;;;;5080271;28;20034;-67
2024/02/22 04:43:49;;;;;;;1.45;0.95;;;;;;;;;;5076696;28;20041;-67
2024/02/22 04:46:15;;;;;;;0.65;0.60;;;;;;;;;;5075296;28;20044;-67
2024/02/22 04:48:41;;;;;;;1.10;0.90;;;;;;;;;;5076646;28;20054;-67
2024/02/22 04:51:07;;;;;;;1.33;0.88;;;;;;;;;;5077138;28;20036;-67
2024/02/22 04:53:33;;;;;;;1.33;0.90;;;;;;;;;;5078487;28;20033;-66
2024/02/22 04:55:59;;;;;;;1.02;0.88;;;;;;;;;;5075592;28;20407;-67
2024/02/22 04:58:25;;;;;;;1.05;0.82;;;;;;;;;;5080027;28;20039;-65
2024/02/22 05:00:51;;;;;;;1.02;0.90;;;;;;;;;;5075195;28;20043;-67
2024/02/22 05:03:18;;;;;;;1.20;0.90;;;;;;;;;;5084999;28;20392;-67
2024/02/22 05:05:44;;;;;;;0.88;0.80;;;;;;;;;;5085084;28;20526;-67
2024/02/22 05:08:10;;;;;;;1.17;0.88;;;;;;;;;;5075456;28;20071;-66
2024/02/22 05:10:36;;;;;;;1.27;0.80;;;;;;;;;;5076265;28;20025;-67
2024/02/22 05:13:03;;;;;;;1.08;0.70;;;;;;;;;;5077206;28;20031;-66
2024/02/22 05:15:29;;;;;;;0.80;0.80;;;;;;;;;;5076823;28;20052;-67
2024/02/22 05:17:55;;;;;;;1.10;0.80;;;;;;;;;;5073005;28;20503;-67
2024/02/22 05:20:21;;;;;;;1.23;1.00;;;;;;;;;;5079244;28;20051;-67
2024/02/22 05:22:47;;;;;;;2.17;1.30;;;;;;;;;;5075662;28;20052;-67
2024/02/22 05:25:14;;;;;;;1.42;0.85;;;;;;;;;;5075665;28;20028;-66
2024/02/22 05:27:40;;;;;;;1.83;1.10;;;;;;;;;;5076543;28;20999;-67
2024/02/22 05:30:06;;;;;;;0.88;0.88;;;;;;;;;;5078053;28;20491;-66
2024/02/22 05:32:35;;;;;;;0.93;0.80;;;;;;;;;;5074929;28;20392;-66
2024/02/22 05:35:01;;;;;;;0.90;0.77;;;;;;;;;;5074634;28;20028;-66
2024/02/22 05:37:27;;;;;;;1.63;0.82;;;;;;;;;;5076092;28;20529;-66
2024/02/22 05:39:55;;;;;;;1.15;1.00;;;;;;;;;;5069015;28;20052;-66
2024/02/22 05:42:21;;;;;;;1.23;0.80;;;;;;;;;;5077940;28;20043;-66
2024/02/22 05:44:47;;;;;;;0.88;0.80;;;;;;;;;;5079279;28;20039;-66
2024/02/22 05:47:13;;;;;;;1.30;1.00;;;;;;;;;;5079919;28;20044;-66
2024/02/22 05:49:40;;;;;;;1.50;0.90;;;;;;;;;;5073927;28;20500;-66
2024/02/22 05:52:07;;;;;;;1.27;0.90;;;;;;;;;;5076955;28;20032;-66
2024/02/22 05:54:33;;;;;;;1.83;0.93;;;;;;;;;;5079339;28;20028;-67
2024/02/22 05:57:00;;;;;;;2.67;1.00;;;;;;;;;;5085436;28;20051;-66
2024/02/22 05:59:26;;;;;;;1.13;1.02;;;;;;;;;;5079011;28;20039;-64
2024/02/22 06:01:52;;;;;;;1.55;0.80;;;;;;;;;;5078662;28;20040;-67
2024/02/22 06:04:19;;;;;;;1.23;1.05;;;;;;;;;;5072564;28;20024;-66
2024/02/22 06:06:45;;;;;;;2.80;1.40;;;;;;;;;;5074584;28;20044;-66
2024/02/22 06:09:11;;;;;;;1.27;0.85;;;;;;;;;;5073140;28;20391;-65
2024/02/22 06:11:37;;;;;;;0.85;0.70;;;;;;;;;;5072738;28;20041;-62
2024/02/22 06:14:04;;;;;;;1.13;0.80;;;;;;;;;;5078454;28;20025;-65
2024/02/22 06:16:30;;;;;;;0.73;0.60;;;;;;;;;;5080577;28;20419;-64
2024/02/22 06:18:56;;;;;;;0.98;0.80;;;;;;;;;;5081350;28;20035;-64
2024/02/22 06:21:22;;;;;;;0.98;0.60;;;;;;;;;;5078116;28;20360;-64
2024/02/22 06:23:48;;;;;;;0.63;0.50;;;;;;;;;;5081185;28;20492;-64
2024/02/22 06:26:14;;;;;;;1.15;0.80;;;;;;;;;;5077048;28;20415;-64
2024/02/22 06:28:40;;;;;;;0.90;0.73;;;;;;;;;;5084833;28;20037;-64
2024/02/22 06:31:06;;;;;;;1.00;0.82;;;;;;;;;;5085966;28;20040;-64
2024/02/22 06:33:33;;;;;;;1.48;0.95;;;;;;;;;;5076819;28;20040;-65
2024/02/22 06:35:59;;;;;;;0.95;0.70;;;;;;;;;;5081153;28;20043;-64
2024/02/22 06:38:25;;;;;;;2.00;0.70;;;;;;;;;;5070834;28;20032;-64
2024/02/22 06:40:52;;;;;;;2.00;0.80;;;;;;;;;;5071673;28;20032;-65
2024/02/22 06:43:18;;;;;;;1.00;0.60;;;;;;;;;;5078237;28;20036;-64
2024/02/22 06:45:45;;;;;;;0.80;0.70;;;;;;;;;;5078709;28;20045;-63
2024/02/22 06:48:11;;;;;;;1.42;0.95;;;;;;;;;;5078641;28;20035;-64
2024/02/22 06:50:37;;;;;;;2.17;1.10;;;;;;;;;;5062301;28;20047;-62
2024/02/22 06:53:04;;;;;;;1.85;1.10;;;;;;;;;;5083464;28;20051;-64
2024/02/22 06:55:31;;;;;;;1.63;0.70;;;;;;;;;;5073699;28;20063;-64
2024/02/22 06:57:57;;;;;;;2.85;1.30;;;;;;;;;;5078833;28;20059;-65
2024/02/22 07:00:24;;;;;;;1.83;1.10;;;;;;;;;;5060120;28;20040;-65
2024/02/22 07:02:50;;;;;;;1.40;0.95;;;;;;;;;;5062859;28;20043;-65
2024/02/22 07:05:16;;;;;;;2.63;1.10;;;;;;;;;;5074518;28;20036;-64
2024/02/22 07:07:42;;;;;;;1.25;0.90;;;;;;;;;;5068815;28;20040;-65
2024/02/22 07:10:13;;;;;;;1.90;1.02;;;;;;;;;;5072151;28;20048;-64
2024/02/22 07:12:42;;;;;;;2.28;0.80;;;;;;;;;;5071550;28;20045;-65
2024/02/22 07:15:10;;;;;;;1.33;0.93;;;;;;;;;;5073531;28;20040;-65
2024/02/22 07:17:36;;;;;;;1.20;0.80;;;;;;;;;;5082226;28;20055;-64
2024/02/22 07:20:03;;;;;;;1.00;0.70;;;;;;;;;;5072257;28;20048;-64
2024/02/22 07:22:29;;;;;;;1.55;0.70;;;;;;;;;;5072445;28;20048;-64
2024/02/22 07:24:55;;;;;;;1.20;0.70;;;;;;;;;;5076811;28;20041;-65
2024/02/22 07:27:22;;;;;;;3.05;0.90;;;;;;;;;;5082386;28;20040;-65
2024/02/22 07:29:48;;;;;;;1.35;0.60;;;;;;;;;;5083487;28;20046;-63
2024/02/22 07:32:14;;;;;;;0.77;0.60;;;;;;;;;;5070399;28;20040;-65
2024/02/22 07:34:40;;;;;;;1.42;0.70;;;;;;;;;;5074342;28;20040;-64
2024/02/22 07:37:06;;;;;;;1.38;0.55;;;;;;;;;;5061719;28;20052;-63
2024/02/22 07:39:33;;;;;;;0.70;0.50;;;;;;;;;;5074754;28;20047;-63
2024/02/22 07:41:59;;;;;;;0.88;0.63;;;;;;;;;;5075082;28;20059;-62
2024/02/22 07:44:27;;;;;;;0.50;0.50;;;;;;;;;;5082002;28;20040;-63
2024/02/22 07:46:53;;;;;;;0.95;0.60;;;;;;;;;;5082395;28;20040;-63
2024/02/22 07:49:21;;;;;;;0.50;0.40;;;;;;;;;;5060633;28;20031;-62
2024/02/22 07:51:47;;;;;;;0.63;0.50;;;;;;;;;;5076009;28;20040;-62
2024/02/22 07:54:14;;;;;;;2.08;0.30;;;;;;;;;;5100789;27;20036;-63
2024/02/22 07:56:40;;;;;;;0.35;0.30;;;;;;;;;;5073917;28;20048;-62
2024/02/22 07:59:08;;;;;;;0.68;0.45;;;;;;;;;;5062734;28;20028;-62
2024/02/22 08:01:36;;;;;;;0.40;0.40;;;;;;;;;;5075579;28;20039;-63
2024/02/22 08:04:03;;;;;;;0.60;0.35;;;;;;;;;;5077638;28;20028;-62
2024/02/22 08:06:29;;;;;;;0.40;0.30;;;;;;;;;;5065363;28;20036;-63
2024/02/22 08:08:55;;;;;;;0.30;0.30;;;;;;;;;;5076210;28;20540;-62
2024/02/22 08:11:23;;;;;;;0.63;0.40;;;;;;;;;;5073740;28;20044;-63
2024/02/22 08:13:49;;;;;;;1.30;0.32;;;;;;;;;;5074864;28;20032;-62
2024/02/22 08:16:16;;;;;;;0.32;0.32;;;;;;;;;;5075603;28;20052;-62
2024/02/22 08:18:42;;;;;;;1.42;0.35;;;;;;;;;;5047679;28;20039;-63
2024/02/22 08:21:09;;;;;;;0.40;0.40;;;;;;;;;;5078932;28;20028;-63
2024/02/22 08:23:35;;;;;;;0.40;0.40;;;;;;;;;;5071809;28;20032;-62
2024/02/22 08:26:01;;;;;;;0.40;0.40;;;;;;;;;;5077376;28;20036;-63
2024/02/22 08:28:28;;;;;;;0.65;0.50;;;;;;;;;;5101793;27;20032;-63
2024/02/22 08:30:55;;;;;;;1.20;0.38;;;;;;;;;;5074505;28;20044;-62
2024/02/22 08:33:25;;;;;;;0.30;0.30;;;;;;;;;;5061648;28;20024;-62
2024/02/22 08:35:52;;;;;;;0.32;0.32;;;;;;;;;;5056866;28;20045;-62
2024/02/22 08:38:18;;;;;;;0.57;0.43;;;;;;;;;;5075233;28;20052;-62
2024/02/22 08:40:44;;;;;;;0.32;0.32;;;;;;;;;;5064825;28;20047;-63
2024/02/22 08:43:11;;;;;;;0.80;0.50;;;;;;;;;;5072026;28;20047;-63
2024/02/22 08:45:37;;;;;;;1.48;0.40;;;;;;;;;;5074717;28;20039;-63
2024/02/22 08:48:04;;;;;;;0.30;0.30;;;;;;;;;;5076262;28;20222;-62
2024/02/22 08:50:30;;;;;;;0.30;0.30;;;;;;;;;;5056438;28;20048;-62
2024/02/22 08:52:56;;;;;;;0.50;0.32;;;;;;;;;;5077050;28;20048;-63
2024/02/22 08:55:22;;;;;;;0.40;0.38;;;;;;;;;;5080875;28;20036;-63
2024/02/22 08:57:49;;;;;;;0.40;0.40;;;;;;;;;;5078862;28;20490;-62
2024/02/22 09:00:19;;;;;;;0.65;0.30;;;;;;;;;;5086076;28;20039;-61
2024/02/22 09:02:48;;;;;;;3.47;0.50;;;;;;;;;;5077346;28;20039;-62
2024/02/22 09:05:14;;;;;;;0.32;0.32;;;;;;;;;;5075429;28;20384;-62
2024/02/22 09:07:41;;;;;;;0.40;0.40;;;;;;;;;;5075276;28;20040;-62
2024/02/22 09:10:08;;;;;;;0.47;0.40;;;;;;;;;;5074752;28;20028;-62
2024/02/22 09:12:34;;;;;;;0.40;0.40;;;;;;;;;;5077121;28;20492;-62
2024/02/22 09:15:02;;;;;;;0.40;0.40;;;;;;;;;;5077453;28;20668;-62
2024/02/22 09:17:28;;;;;;;0.57;0.50;;;;;;;;;;5080340;28;20043;-63
2024/02/22 09:19:54;;;;;;;0.50;0.50;;;;;;;;;;5074626;27;20119;-62
2024/02/22 09:22:20;;;;;;;0.40;0.40;;;;;;;;;;5076433;28;20492;-62
2024/02/22 09:24:46;;;;;;;0.47;0.47;;;;;;;;;;5086255;28;20404;-62
2024/02/22 09:27:13;;;;;;;0.40;0.40;;;;;;;;;;5088165;28;20051;-62
2024/02/22 09:29:40;;;;;;;0.40;0.40;;;;;;;;;;5076408;28;20040;-62
2024/02/22 09:32:07;;;;;;;0.93;0.60;;;;;;;;;;5081179;28;20750;-63
2024/02/22 09:34:34;;;;;;;0.43;0.40;;;;;;;;;;5082486;28;20032;-62
2024/02/22 09:37:01;;;;;;;1.30;0.70;;;;;;;;;;5080265;28;20032;-63
2024/02/22 09:39:28;;;;;;;0.70;0.52;;;;;;;;;;5071848;28;20043;-63
2024/02/22 09:41:54;;;;;;;0.80;0.40;;;;;;;;;;5077047;28;20052;-63
2024/02/22 09:44:21;;;;;;;0.50;0.50;;;;;;;;;;5077442;28;20391;-63
2024/02/22 09:46:49;;;;;;;0.88;0.55;;;;;;;;;;5077570;28;20505;-62
2024/02/22 09:49:17;;;;;;;0.63;0.40;;;;;;;;;;5077957;28;20020;-61
2024/02/22 09:51:43;;;;;;;0.70;0.60;;;;;;;;;;5071363;28;20043;-62
2024/02/22 09:54:10;;;;;;;0.70;0.50;;;;;;;;;;5073063;28;20403;-61
2024/02/22 09:56:38;;;;;;;1.50;0.43;;;;;;;;;;5079629;28;20044;-61
2024/02/22 09:59:05;;;;;;;3.17;0.43;;;;;;;;;;5069049;28;20040;-61
2024/02/22 10:01:31;;;;;;;0.50;0.50;;;;;;;;;;5069243;28;20043;-61
2024/02/22 10:03:57;;;;;;;1.50;0.70;;;;;;;;;;5075350;28;20055;-61
2024/02/22 10:06:24;;;;;;;0.90;0.52;;;;;;;;;;5072778;28;20353;-61
2024/02/22 10:08:56;;;;;;;1.13;0.47;;;;;;;;;;5072445;28;20035;-61
2024/02/22 10:11:23;;;;;;;0.45;0.43;;;;;;;;;;5073698;28;20044;-60
2024/02/22 10:13:57;;;;;;;0.45;0.40;;;;;;;;;;5077533;28;20052;-61
2024/02/22 10:16:23;;;;;;;2.63;0.80;;;;;;;;;;5076735;28;20043;-61
2024/02/22 10:18:49;;;;;;;0.40;0.40;;;;;;;;;;5074011;28;20420;-60
2024/02/22 10:21:17;;;;;;;0.40;0.30;;;;;;;;;;5068845;28;20055;-61
2024/02/22 10:23:46;;;;;;;0.60;0.60;;;;;;;;;;5068917;28;20044;-60
2024/02/22 10:26:13;;;;;;;1.45;0.43;;;;;;;;;;5070145;28;20032;-61
2024/02/22 10:28:39;;;;;;;0.40;0.35;;;;;;;;;;5076031;28;20032;-61
2024/02/22 10:31:06;;;;;;;0.80;0.50;;;;;;;;;;5068533;28;20093;-61
2024/02/22 10:33:33;;;;;;;0.57;0.40;;;;;;;;;;5067278;28;20055;-60
2024/02/22 10:36:00;;;;;;;0.68;0.50;;;;;;;;;;5075070;28;20052;-60
2024/02/22 10:38:29;;;;;;;2.63;0.43;;;;;;;;;;5077304;28;20072;-61
2024/02/22 10:40:55;;;;;;;0.40;0.40;;;;;;;;;;5073204;28;20431;-61
2024/02/22 10:43:25;;;;;;;2.30;0.43;;;;;;;;;;5077910;28;20071;-60
2024/02/22 10:45:57;;;;;;;0.57;0.30;;;;;;;;;;5075736;28;20036;-60
2024/02/22 10:48:29;;;;;;;3.13;0.50;;;;;;;;;;5069530;28;20048;-60
2024/02/22 10:50:58;;;;;;;0.30;0.30;;;;;;;;;;5069632;28;20499;-62
2024/02/22 10:53:25;;;;;;;1.67;0.40;;;;;;;;;;5081086;28;20028;-61
2024/02/22 10:55:55;;;;;;;0.40;0.40;;;;;;;;;;5083402;28;20385;-60
2024/02/22 10:58:23;;;;;;;0.60;0.40;;;;;;;;;;5073028;28;20060;-61
2024/02/22 11:00:50;;;;;;;1.00;0.30;;;;;;;;;;5071859;28;20071;-61
2024/02/22 11:03:18;;;;;;;9.10;0.98;;;;;;;;;;5075201;28;20043;-61
2024/02/22 11:05:47;;;;;;;0.30;0.30;;;;;;;;;;5069137;28;20143;-63
2024/02/22 11:08:21;;;;;;;0.30;0.30;;;;;;;;;;5091918;28;20040;-62
2024/02/22 11:11:07;;;;;;;0.63;0.30;;;;;;;;;;5078914;28;20051;-62
2024/02/22 11:13:34;;;;;;;1.67;0.57;;;;;;;;;;5078283;28;20036;-60
2024/02/22 11:16:12;;;;;;;1.83;0.50;;;;;;;;;;5077887;28;20488;-61
2024/02/22 11:18:38;;;;;;;1.20;0.40;;;;;;;;;;5079763;28;20037;-61
2024/02/22 11:21:12;;;;;;;1.33;0.30;;;;;;;;;;5074071;28;20032;-61
2024/02/22 11:23:39;;;;;;;0.40;0.30;;;;;;;;;;5082766;28;20050;-61
2024/02/22 11:26:05;;;;;;;0.60;0.25;;;;;;;;;;5073014;28;20044;-61
2024/02/22 11:28:31;;;;;;;0.63;0.57;;;;;;;;;;5076610;28;20033;-60
2024/02/22 11:31:11;;;;;;;0.40;0.40;;;;;;;;;;5072602;28;20052;-60
2024/02/22 11:33:38;;;;;;;0.50;0.50;;;;;;;;;;5075747;28;20063;-61
2024/02/22 11:36:05;;;;;;;0.45;0.35;;;;;;;;;;5074929;28;20055;-60
2024/02/22 11:38:31;;;;;;;1.10;0.47;;;;;;;;;;5070138;28;20044;-61
2024/02/22 11:41:04;;;;;;;0.68;0.50;;;;;;;;;;5079720;28;20426;-61
2024/02/22 11:43:30;;;;;;;0.73;0.40;;;;;;;;;;5082165;28;20036;-61
2024/02/22 11:46:04;;;;;;;1.20;0.47;;;;;;;;;;5080075;28;20603;-60
2024/02/22 11:48:30;;;;;;;0.40;0.40;;;;;;;;;;5074014;28;20036;-61
2024/02/22 11:50:57;;;;;;;0.50;0.50;;;;;;;;;;5056330;28;20040;-62
2024/02/22 11:53:23;;;;;;;1.45;0.57;;;;;;;;;;5077957;28;20047;-63
2024/02/22 11:55:50;;;;;;;1.20;0.60;;;;;;;;;;5071781;28;20068;-61
2024/02/22 11:58:17;;;;;;;0.43;0.43;;;;;;;;;;5080186;28;20044;-62
2024/02/22 12:00:44;;;;;;;0.77;0.57;;;;;;;;;;5089578;28;20058;-61
2024/02/22 12:03:12;;;;;;;0.68;0.50;;;;;;;;;;5073849;28;20032;-60
2024/02/22 12:05:39;;;;;;;1.25;0.40;;;;;;;;;;5075637;28;20384;-61
2024/02/22 12:08:06;;;;;;;0.70;0.50;;;;;;;;;;5074425;28;20048;-61
2024/02/22 12:10:32;;;;;;;1.27;0.35;;;;;;;;;;5077682;28;20032;-61
2024/02/22 12:12:58;;;;;;;1.20;0.50;;;;;;;;;;5073168;28;20515;-61
2024/02/22 12:15:25;;;;;;;0.47;0.40;;;;;;;;;;5073639;28;20059;-61
2024/02/22 12:17:54;;;;;;;0.50;0.50;;;;;;;;;;5071998;28;20052;-63
2024/02/22 12:20:26;;;;;;;0.20;0.20;;;;;;;;;;5075392;28;20637;-61
2024/02/22 12:22:54;;;;;;;0.82;0.43;;;;;;;;;;5075624;28;20404;-62
2024/02/22 12:25:20;;;;;;;0.88;0.57;;;;;;;;;;5072945;28;20051;-61
2024/02/22 12:27:52;;;;;;;0.50;0.50;;;;;;;;;;5074979;28;20051;-61
2024/02/22 12:30:19;;;;;;;0.50;0.40;;;;;;;;;;5073598;28;20039;-61
2024/02/22 12:32:49;;;;;;;0.60;0.50;;;;;;;;;;5075954;28;20055;-62
2024/02/22 12:35:16;;;;;;;;;;;;;;;;;;5073997;28;20045;-61
2024/02/22 12:37:42;;;;;;;;;;;;;;;;;;5072630;28;19921;-60
2024/02/22 12:40:09;;;;;;;;;;;;;;;;;;5079402;28;19969;-61
2024/02/22 12:42:35;;;;;;;;;;;;;;;;;;5082821;28;19912;-61
2024/02/22 12:45:01;;;;;;;;;;;;;;;;;;5085413;28;19919;-61
2024/02/22 12:47:27;;;;;;;;;;;;;;;;;;5088742;28;19960;-61
2024/02/22 12:49:58;;;;;;;;;;;;;;;;;;5092485;28;19989;-61
2024/02/22 12:52:24;;;;;;;;;;;;;;;;;;5084556;28;19912;-61
2024/02/22 12:54:50;;;;;;;;;;;;;;;;;;5084326;28;20291;-61
2024/02/22 12:57:15;;;;;;;;;;;;;;;;;;5082897;28;19913;-61
2024/02/22 12:59:44;;;;;;;;;;;;;;;;;;5085765;28;19935;-61
2024/02/22 13:02:10;;;;;;;;;;;;;;;;;;5078090;28;19912;-61
2024/02/22 13:04:36;;;;;;;;;;;;;;;;;;5075302;28;19942;-61
2024/02/22 13:07:02;;;;;;;;;;;;;;;;;;5077639;28;19945;-61
2024/02/22 13:09:29;;;;;;;;;;;;;;;;;;5080403;28;19911;-61
2024/02/22 13:11:55;;;;;;;;;;;;;;;;;;5084448;28;19912;-61
2024/02/22 13:14:21;;;;;;;;;;;;;;;;;;5076245;28;19916;-61
2024/02/22 13:16:47;;;;;;;;;;;;;;;;;;5086742;28;20196;-60
2024/02/22 13:19:13;;;;;;;;;;;;;;;;;;5083909;28;19999;-60
2024/02/22 13:21:40;;;;;;;;;;;;;;;;;;5072180;28;20344;-59
2024/02/22 13:24:06;;;;;;;;;;;;;;;;;;5087116;28;20622;-61
2024/02/22 13:26:31;;;;;;;;;;;;;;;;;;5076594;28;19912;-60
2024/02/22 13:28:57;;;;;;;;;;;;;;;;;;5080151;28;19923;-61
2024/02/22 13:31:23;;;;;;;;;;;;;;;;;;5079439;28;20285;-61
2024/02/22 13:33:50;;;;;;;;;;;;;;;;;;5085271;28;19935;-61
2024/02/22 13:36:16;;;;;;;;;;;;;;;;;;5081685;28;19916;-62
2024/02/22 13:38:42;;;;;;;;;;;;;;;;;;5077999;28;20494;-61
2024/02/22 13:41:09;;;;;;;;;;;;;;;;;;5080206;28;19924;-61
2024/02/22 13:43:35;;;;;;;;;;;;;;;;;;5076252;28;19943;-61
2024/02/22 13:46:02;;;;;;;;;;;;;;;;;;5073278;28;19912;-61
2024/02/22 13:48:31;;;;;;;;;;;;;;;;;;5080525;28;20382;-62
2024/02/22 13:50:57;;;;;;;;;;;;;;;;;;5083284;28;19935;-61
2024/02/22 13:53:23;;;;;;;;;;;;;;;;;;5078565;28;19976;-63
2024/02/22 13:55:49;;;;;;;;;;;;;;;;;;5076780;28;20020;-60
2024/02/22 13:58:15;;;;;;;;;;;;;;;;;;5075516;28;20260;-61
2024/02/22 14:00:42;;;;;;;;;;;;;;;;;;5087750;27;20601;-63
2024/02/22 14:03:09;;;;;;;;;;;;;;;;;;5068766;28;19916;-62
2024/02/22 14:05:36;;;;;;;;;;;;;;;;;;5073005;28;19912;-61
2024/02/22 14:08:02;;;;;;;;;;;;;;;;;;5082008;28;20315;-62
2024/02/22 14:10:30;;;;;;;;;;;;;;;;;;5069746;28;19927;-61
2024/02/22 14:12:56;;;;;;;;;;;;;;;;;;5078159;28;19912;-63
2024/02/22 14:15:22;;;;;;;;;;;;;;;;;;5076788;28;19971;-61
2024/02/22 14:17:50;;;;;;;;;;;;;;;;;;5069383;28;19917;-63
2024/02/22 14:20:16;;;;;;;;;;;;;;;;;;5080820;28;19920;-61
2024/02/22 14:22:42;;;;;;;;;;;;;;;;;;5076656;28;19919;-61
2024/02/22 14:25:09;;;;;;;;;;;;;;;;;;5074027;28;19911;-62
2024/02/22 14:27:36;;;;;;;;;;;;;;;;;;5073427;28;20273;-62
2024/02/22 14:30:05;;;;;;;;;;;;;;;;;;5073002;28;19920;-61
2024/02/22 14:32:31;;;;;;;;;;;;;;;;;;5076906;28;19912;-62
2024/02/22 14:34:57;;;;;;;;;;;;;;;;;;5076198;28;20007;-61
2024/02/22 14:37:24;;;;;;;;;;;;;;;;;;5071728;28;20251;-61
2024/02/22 14:39:50;;;;;;;;;;;;;;;;;;5075929;28;20359;-62
2024/02/22 14:42:17;;;;;;;;;;;;;;;;;;5076140;28;20410;-60
2024/02/22 14:44:46;;;;;;;;;;;;;;;;;;5078513;28;19912;-61
2024/02/22 14:47:12;;;;;;;;;;;;;;;;;;5072054;28;19920;-61
2024/02/22 14:49:44;;;;;;;;;;;;;;;;;;5072043;28;20033;-60
2024/02/22 14:52:13;;;;;;;;;;;;;;;;;;5077872;28;19911;-61
2024/02/22 14:54:41;;;;;;;;;;;;;;;;;;5073668;28;19916;-60
2024/02/22 14:57:08;;;;;;;;;;;;;;;;;;5073947;28;19920;-60
2024/02/22 14:59:34;;;;;;;;;;;;;;;;;;5071962;28;19913;-61